createdAt,value
2018-11-25T00:00:01.403Z,86.62
2018-11-25T00:01:01.391Z,86.52
2018-11-25T00:02:01.383Z,86.52
2018-11-25T00:03:01.369Z,86.93
2018-11-25T00:04:01.400Z,86.62
2018-11-25T00:05:01.355Z,86.52
2018-11-25T00:06:01.352Z,86.72
2018-11-25T00:07:01.328Z,86.52
2018-11-25T00:08:01.316Z,86.07
2018-11-25T00:09:01.306Z,86.31
2018-11-25T00:10:01.339Z,86.31
2018-11-25T00:11:01.285Z,86.00
2018-11-25T00:12:01.274Z,86.00
2018-11-25T00:13:01.287Z,86.27
2018-11-25T00:14:01.255Z,86.00
2018-11-25T00:15:01.241Z,86.00
2018-11-25T00:16:01.253Z,86.00
2018-11-25T00:17:01.245Z,86.41
2018-11-25T00:18:01.210Z,86.17
2018-11-25T00:19:01.200Z,86.31
2018-11-25T00:20:01.196Z,86.00
2018-11-25T00:21:01.215Z,86.31
2018-11-25T00:22:01.177Z,86.21
2018-11-25T00:23:01.161Z,86.31
2018-11-25T00:24:01.146Z,86.10
2018-11-25T00:25:01.135Z,86.21
2018-11-25T00:26:01.125Z,86.00
2018-11-25T00:27:01.196Z,86.10
2018-11-25T00:28:01.105Z,86.00
2018-11-25T00:29:01.092Z,86.10
2018-11-25T00:30:01.086Z,86.41
2018-11-25T00:31:09.100Z,86.21
2018-11-25T00:32:02.096Z,86.72
2018-11-25T00:33:01.049Z,86.62
2018-11-25T00:34:01.045Z,86.83
2018-11-25T00:35:01.029Z,86.41
2018-11-25T00:36:01.019Z,86.72
2018-11-25T00:37:01.007Z,86.41
2018-11-25T00:38:01.027Z,85.75
2018-11-25T00:39:00.985Z,86.21
2018-11-25T00:40:00.979Z,86.10
2018-11-25T00:41:00.967Z,85.86
2018-11-25T00:42:00.956Z,85.75
2018-11-25T00:43:00.945Z,86.41
2018-11-25T00:44:00.959Z,86.07
2018-11-25T00:45:00.929Z,86.10
2018-11-25T00:46:00.930Z,86.52
2018-11-25T00:47:00.902Z,86.52
2018-11-25T00:48:00.895Z,86.52
2018-11-25T00:49:00.918Z,86.58
2018-11-25T00:50:00.872Z,86.31
2018-11-25T00:51:00.861Z,86.31
2018-11-25T00:52:00.860Z,86.41
2018-11-25T00:53:00.836Z,86.93
2018-11-25T00:54:00.826Z,86.52
2018-11-25T00:55:00.839Z,86.31
2018-11-25T00:56:00.812Z,86.62
2018-11-25T00:57:00.795Z,86.72
2018-11-25T00:58:00.823Z,86.52
2018-11-25T00:59:00.773Z,86.66
2018-11-25T01:00:00.762Z,86.62
2018-11-25T01:01:00.752Z,86.93
2018-11-25T01:02:00.752Z,87.04
2018-11-25T01:03:00.742Z,86.66
2018-11-25T01:04:00.743Z,86.62
2018-11-25T01:05:00.712Z,87.07
2018-11-25T01:06:00.698Z,86.52
2018-11-25T01:07:00.707Z,86.52
2018-11-25T01:08:00.699Z,86.62
2018-11-25T01:09:00.670Z,86.62
2018-11-25T01:10:00.656Z,86.62
2018-11-25T01:11:00.685Z,86.66
2018-11-25T01:12:00.635Z,86.62
2018-11-25T01:13:00.623Z,86.62
2018-11-25T01:14:00.613Z,87.04
2018-11-25T01:15:00.605Z,87.18
2018-11-25T01:16:00.607Z,87.07
2018-11-25T01:17:00.610Z,87.07
2018-11-25T01:18:00.570Z,87.28
2018-11-25T01:19:00.560Z,87.70
2018-11-25T01:20:00.589Z,88.01
2018-11-25T01:21:00.541Z,88.01
2018-11-25T01:22:00.529Z,88.26
2018-11-25T01:23:00.518Z,88.15
2018-11-25T01:24:00.509Z,88.11
2018-11-25T01:25:00.497Z,88.36
2018-11-25T01:26:00.505Z,88.01
2018-11-25T01:27:00.475Z,88.11
2018-11-25T01:28:00.466Z,88.42
2018-11-25T01:29:00.454Z,87.90
2018-11-25T01:30:00.466Z,88.21
2018-11-25T01:31:00.463Z,87.38
2018-11-25T01:32:00.423Z,87.24
2018-11-25T01:33:00.414Z,87.14
2018-11-25T01:34:00.401Z,87.35
2018-11-25T01:35:01.067Z,87.28
2018-11-25T01:36:00.403Z,87.35
2018-11-25T01:37:00.370Z,87.49
2018-11-25T01:38:00.361Z,87.49
2018-11-25T01:39:00.348Z,87.24
2018-11-25T01:40:00.349Z,86.83
2018-11-25T01:41:00.360Z,86.97
2018-11-25T01:42:00.315Z,86.97
2018-11-25T01:43:00.306Z,86.87
2018-11-25T01:44:00.294Z,87.49
2018-11-25T01:45:00.283Z,87.04
2018-11-25T01:46:00.277Z,87.04
2018-11-25T01:47:00.320Z,87.38
2018-11-25T01:48:00.257Z,87.38
2018-11-25T01:49:00.241Z,87.18
2018-11-25T01:50:00.234Z,87.45
2018-11-25T01:51:00.226Z,87.59
2018-11-25T01:52:00.232Z,87.49
2018-11-25T01:53:00.198Z,87.18
2018-11-25T01:54:00.214Z,87.28
2018-11-25T01:55:00.199Z,87.18
2018-11-25T01:56:00.166Z,87.18
2018-11-25T01:57:00.176Z,87.35
2018-11-25T01:58:00.147Z,87.14
2018-11-25T01:59:00.723Z,87.07
2018-11-25T02:00:00.144Z,87.04
2018-11-25T02:01:00.119Z,87.35
2018-11-25T02:02:00.103Z,87.35
2018-11-25T02:03:00.097Z,87.87
2018-11-25T02:04:00.082Z,88.07
2018-11-25T02:05:00.118Z,88.21
2018-11-25T02:06:00.097Z,87.59
2018-11-25T02:07:00.051Z,87.49
2018-11-25T02:08:00.041Z,87.35
2018-11-25T02:09:00.039Z,87.55
2018-11-25T02:10:00.021Z,87.35
2018-11-25T02:11:00.008Z,87.35
2018-11-25T02:12:00.020Z,87.18
2018-11-25T02:12:59.986Z,87.45
2018-11-25T02:13:59.976Z,86.83
2018-11-25T02:14:59.966Z,86.93
2018-11-25T02:15:59.976Z,86.83
2018-11-25T02:16:59.943Z,87.24
2018-11-25T02:17:59.953Z,87.14
2018-11-25T02:18:59.921Z,87.45
2018-11-25T02:19:59.911Z,87.35
2018-11-25T02:20:59.951Z,87.24
2018-11-25T02:21:59.890Z,87.97
2018-11-25T02:22:59.878Z,88.32
2018-11-25T02:23:59.869Z,88.07
2018-11-25T02:24:59.859Z,88.07
2018-11-25T02:25:59.850Z,88.07
2018-11-25T02:26:59.856Z,88.39
2018-11-25T02:27:59.856Z,88.07
2018-11-25T02:28:59.814Z,88.07
2018-11-25T02:29:59.805Z,87.87
2018-11-25T02:30:59.802Z,88.28
2018-11-25T02:31:59.783Z,87.45
2018-11-25T02:32:59.798Z,88.28
2018-11-25T02:33:59.763Z,87.87
2018-11-25T02:34:59.751Z,88.01
2018-11-25T02:35:59.741Z,87.90
2018-11-25T02:36:59.730Z,88.11
2018-11-25T02:37:59.745Z,88.18
2018-11-25T02:38:59.758Z,87.97
2018-11-25T02:39:59.697Z,87.97
2018-11-25T02:40:59.688Z,88.18
2018-11-25T02:41:59.686Z,87.87
2018-11-25T02:42:59.666Z,87.45
2018-11-25T02:43:59.654Z,88.07
2018-11-25T02:44:59.670Z,88.28
2018-11-25T02:45:59.634Z,87.87
2018-11-25T02:46:59.647Z,87.45
2018-11-25T02:47:59.614Z,87.45
2018-11-25T02:48:59.606Z,87.55
2018-11-25T02:49:59.607Z,87.66
2018-11-25T02:50:59.580Z,87.45
2018-11-25T02:51:59.606Z,87.24
2018-11-25T02:52:59.559Z,88.28
2018-11-25T02:53:59.550Z,88.18
2018-11-25T02:54:59.537Z,88.07
2018-11-25T02:55:59.528Z,87.76
2018-11-25T02:56:59.536Z,88.18
2018-11-25T02:58:00.823Z,87.66
2018-11-25T02:58:59.499Z,87.35
2018-11-25T02:59:59.485Z,87.45
2018-11-25T03:00:59.478Z,87.55
2018-11-25T03:01:59.485Z,88.28
2018-11-25T03:02:59.454Z,87.87
2018-11-25T03:03:59.443Z,88.18
2018-11-25T03:04:59.432Z,88.18
2018-11-25T03:05:59.421Z,88.28
2018-11-25T03:06:59.441Z,88.07
2018-11-25T03:07:59.407Z,88.07
2018-11-25T03:08:59.393Z,88.18
2018-11-25T03:09:59.383Z,88.18
2018-11-25T03:10:59.367Z,88.28
2018-11-25T03:11:59.362Z,88.59
2018-11-25T03:12:59.372Z,88.18
2018-11-25T03:13:59.342Z,88.07
2018-11-25T03:14:59.356Z,87.41
2018-11-25T03:15:59.315Z,87.35
2018-11-25T03:16:59.304Z,87.30
2018-11-25T03:17:59.299Z,87.41
2018-11-25T03:18:59.282Z,87.55
2018-11-25T03:19:59.284Z,87.45
2018-11-25T03:20:59.299Z,87.41
2018-11-25T03:21:59.252Z,87.30
2018-11-25T03:22:59.241Z,87.45
2018-11-25T03:23:59.235Z,87.20
2018-11-25T03:24:59.221Z,87.10
2018-11-25T03:25:59.215Z,86.89
2018-11-25T03:26:59.220Z,87.20
2018-11-25T03:27:59.185Z,87.30
2018-11-25T03:28:59.175Z,86.99
2018-11-25T03:29:59.171Z,87.41
2018-11-25T03:30:59.157Z,86.99
2018-11-25T03:31:59.190Z,87.20
2018-11-25T03:32:59.132Z,86.99
2018-11-25T03:33:59.123Z,86.79
2018-11-25T03:34:59.112Z,87.20
2018-11-25T03:35:59.106Z,87.10
2018-11-25T03:36:59.096Z,87.20
2018-11-25T03:37:59.102Z,86.99
2018-11-25T03:38:59.072Z,87.10
2018-11-25T03:39:59.057Z,86.79
2018-11-25T03:40:59.070Z,86.47
2018-11-25T03:41:59.046Z,86.75
2018-11-25T03:42:59.049Z,86.68
2018-11-25T03:43:59.014Z,86.99
2018-11-25T03:44:59.007Z,86.58
2018-11-25T03:45:58.994Z,86.79
2018-11-25T03:47:06.050Z,87.10
2018-11-25T03:47:58.975Z,86.68
2018-11-25T03:48:58.989Z,87.10
2018-11-25T03:49:58.950Z,86.99
2018-11-25T03:50:58.940Z,86.89
2018-11-25T03:51:58.930Z,86.79
2018-11-25T03:52:58.918Z,86.54
2018-11-25T03:53:58.943Z,86.54
2018-11-25T03:54:58.896Z,86.65
2018-11-25T03:55:58.885Z,86.89
2018-11-25T03:56:58.881Z,86.68
2018-11-25T03:57:58.867Z,86.44
2018-11-25T03:58:58.854Z,86.68
2018-11-25T03:59:58.885Z,86.44
2018-11-25T04:00:58.834Z,86.79
2018-11-25T04:01:58.823Z,86.75
2018-11-25T04:02:58.812Z,86.99
2018-11-25T04:03:58.800Z,87.10
2018-11-25T04:04:58.792Z,86.75
2018-11-25T04:05:58.804Z,86.79
2018-11-25T04:06:58.770Z,86.99
2018-11-25T04:07:58.758Z,86.79
2018-11-25T04:08:58.747Z,86.58
2018-11-25T04:09:58.736Z,86.47
2018-11-25T04:10:58.754Z,86.65
2018-11-25T04:11:58.716Z,86.65
2018-11-25T04:12:58.715Z,86.75
2018-11-25T04:13:58.696Z,86.85
2018-11-25T04:14:58.683Z,86.96
2018-11-25T04:15:58.698Z,87.16
2018-11-25T04:16:58.698Z,86.47
2018-11-25T04:17:58.657Z,86.75
2018-11-25T04:18:58.643Z,86.75
2018-11-25T04:19:58.630Z,86.58
2018-11-25T04:20:58.674Z,86.65
2018-11-25T04:21:58.610Z,86.85
2018-11-25T04:22:58.597Z,86.96
2018-11-25T04:23:58.588Z,86.75
2018-11-25T04:24:58.584Z,86.79
2018-11-25T04:25:58.570Z,86.75
2018-11-25T04:26:58.577Z,86.96
2018-11-25T04:27:58.581Z,86.85
2018-11-25T04:28:58.537Z,86.75
2018-11-25T04:29:58.528Z,86.96
2018-11-25T04:30:58.516Z,86.99
2018-11-25T04:31:58.502Z,87.41
2018-11-25T04:32:58.490Z,87.51
2018-11-25T04:33:58.524Z,87.30
2018-11-25T04:34:58.474Z,87.27
2018-11-25T04:35:58.461Z,87.37
2018-11-25T04:36:58.454Z,87.41
2018-11-25T04:37:58.437Z,87.41
2018-11-25T04:38:58.425Z,87.47
2018-11-25T04:39:58.434Z,87.41
2018-11-25T04:40:58.411Z,87.51
2018-11-25T04:41:58.417Z,87.27
2018-11-25T04:42:58.387Z,88.24
2018-11-25T04:43:58.375Z,88.09
2018-11-25T04:44:58.405Z,87.88
2018-11-25T04:45:58.352Z,88.13
2018-11-25T04:46:58.346Z,88.20
2018-11-25T04:47:58.335Z,88.20
2018-11-25T04:48:58.329Z,88.24
2018-11-25T04:49:58.313Z,88.13
2018-11-25T04:50:58.342Z,88.13
2018-11-25T04:51:58.287Z,88.13
2018-11-25T04:52:58.279Z,87.82
2018-11-25T04:53:58.263Z,88.45
2018-11-25T04:54:58.256Z,88.65
2018-11-25T04:55:58.243Z,88.79
2018-11-25T04:56:58.262Z,88.76
2018-11-25T04:57:58.222Z,88.90
2018-11-25T04:58:58.231Z,88.48
2018-11-25T04:59:58.199Z,89.07
2018-11-25T05:00:58.226Z,88.55
2018-11-25T05:01:58.179Z,88.45
2018-11-25T05:02:58.172Z,88.55
2018-11-25T05:03:58.995Z,88.55
2018-11-25T05:04:58.150Z,88.55
2018-11-25T05:05:58.136Z,88.55
2018-11-25T05:06:58.158Z,88.45
2018-11-25T05:07:58.119Z,88.45
2018-11-25T05:08:58.103Z,88.34
2018-11-25T05:09:58.095Z,88.34
2018-11-25T05:10:58.082Z,88.65
2018-11-25T05:11:58.072Z,88.45
2018-11-25T05:12:58.100Z,88.45
2018-11-25T05:13:58.050Z,88.55
2018-11-25T05:14:58.039Z,88.55
2018-11-25T05:15:58.029Z,88.09
2018-11-25T05:16:58.019Z,88.65
2018-11-25T05:17:58.016Z,88.45
2018-11-25T05:18:58.017Z,88.51
2018-11-25T05:19:57.985Z,88.34
2018-11-25T05:20:57.975Z,88.51
2018-11-25T05:21:57.963Z,87.99
2018-11-25T05:22:57.954Z,87.88
2018-11-25T05:23:57.963Z,87.99
2018-11-25T05:24:57.937Z,88.09
2018-11-25T05:25:57.920Z,88.20
2018-11-25T05:26:57.910Z,87.78
2018-11-25T05:27:57.901Z,88.09
2018-11-25T05:28:57.927Z,88.40
2018-11-25T05:29:57.888Z,88.51
2018-11-25T05:30:57.867Z,88.30
2018-11-25T05:31:57.856Z,88.45
2018-11-25T05:32:57.846Z,88.34
2018-11-25T05:33:57.837Z,88.61
2018-11-25T05:34:57.845Z,88.51
2018-11-25T05:35:57.822Z,88.40
2018-11-25T05:36:57.802Z,88.96
2018-11-25T05:37:57.792Z,88.71
2018-11-25T05:38:57.801Z,88.45
2018-11-25T05:39:57.779Z,88.51
2018-11-25T05:40:57.796Z,88.55
2018-11-25T05:41:57.756Z,88.45
2018-11-25T05:42:57.738Z,88.40
2018-11-25T05:43:57.727Z,88.40
2018-11-25T05:44:57.719Z,88.30
2018-11-25T05:45:57.705Z,88.40
2018-11-25T05:46:57.730Z,88.40
2018-11-25T05:47:57.685Z,88.51
2018-11-25T05:48:57.673Z,88.61
2018-11-25T05:49:57.662Z,88.51
2018-11-25T05:50:57.654Z,88.30
2018-11-25T05:51:57.640Z,88.71
2018-11-25T05:52:57.662Z,88.20
2018-11-25T05:53:57.617Z,88.40
2018-11-25T05:54:57.608Z,88.34
2018-11-25T05:55:57.601Z,88.40
2018-11-25T05:56:57.587Z,88.40
2018-11-25T05:57:57.577Z,88.30
2018-11-25T05:58:57.585Z,87.78
2018-11-25T05:59:57.554Z,88.09
2018-11-25T06:00:57.544Z,87.99
2018-11-25T06:01:57.557Z,87.99
2018-11-25T06:02:57.523Z,88.09
2018-11-25T06:03:57.535Z,87.99
2018-11-25T06:04:57.505Z,88.20
2018-11-25T06:05:57.491Z,87.99
2018-11-25T06:06:57.502Z,88.40
2018-11-25T06:07:57.469Z,88.40
2018-11-25T06:08:57.545Z,88.51
2018-11-25T06:09:57.447Z,88.20
2018-11-25T06:10:57.442Z,88.61
2018-11-25T06:11:57.446Z,88.51
2018-11-25T06:12:57.419Z,88.71
2018-11-25T06:13:57.403Z,88.40
2018-11-25T06:14:57.413Z,88.51
2018-11-25T06:15:57.382Z,88.82
2018-11-25T06:16:57.377Z,89.03
2018-11-25T06:17:57.365Z,88.82
2018-11-25T06:18:57.373Z,88.92
2018-11-25T06:19:57.339Z,88.86
2018-11-25T06:20:57.330Z,88.82
2018-11-25T06:21:57.320Z,89.13
2018-11-25T06:22:57.311Z,89.03
2018-11-25T06:23:57.351Z,89.03
2018-11-25T06:24:57.284Z,89.03
2018-11-25T06:25:57.278Z,88.86
2018-11-25T06:26:57.310Z,89.13
2018-11-25T06:27:57.256Z,88.92
2018-11-25T06:28:57.248Z,89.13
2018-11-25T06:29:57.230Z,88.82
2018-11-25T06:30:57.222Z,88.82
2018-11-25T06:31:57.210Z,89.03
2018-11-25T06:32:57.241Z,89.03
2018-11-25T06:33:57.194Z,89.03
2018-11-25T06:34:57.185Z,88.51
2018-11-25T06:35:57.166Z,88.40
2018-11-25T06:36:57.159Z,88.71
2018-11-25T06:37:57.145Z,88.30
2018-11-25T06:38:57.158Z,88.51
2018-11-25T06:39:57.136Z,88.20
2018-11-25T06:40:57.117Z,88.20
2018-11-25T06:41:57.138Z,88.88
2018-11-25T06:42:57.092Z,88.71
2018-11-25T06:43:57.096Z,88.30
2018-11-25T06:44:57.069Z,88.40
2018-11-25T06:45:57.069Z,88.40
2018-11-25T06:46:57.051Z,88.82
2018-11-25T06:47:57.067Z,88.71
2018-11-25T06:48:57.031Z,88.92
2018-11-25T06:49:57.040Z,89.03
2018-11-25T06:50:57.005Z,88.40
2018-11-25T06:51:57.037Z,88.30
2018-11-25T06:52:56.986Z,88.51
2018-11-25T06:53:56.973Z,88.82
2018-11-25T06:54:56.963Z,88.61
2018-11-25T06:55:56.953Z,88.71
2018-11-25T06:56:56.952Z,88.40
2018-11-25T06:57:56.953Z,88.92
2018-11-25T06:58:56.921Z,88.71
2018-11-25T06:59:56.909Z,88.82
2018-11-25T07:00:56.899Z,89.03
2018-11-25T07:01:56.888Z,88.61
2018-11-25T07:02:56.903Z,88.71
2018-11-25T07:03:56.870Z,88.71
2018-11-25T07:04:56.859Z,88.61
2018-11-25T07:05:56.868Z,88.92
2018-11-25T07:06:56.863Z,88.57
2018-11-25T07:07:56.826Z,88.46
2018-11-25T07:08:56.813Z,88.88
2018-11-25T07:09:56.807Z,88.67
2018-11-25T07:10:56.794Z,88.98
2018-11-25T07:11:56.802Z,88.26
2018-11-25T07:12:56.792Z,88.40
2018-11-25T07:13:56.783Z,88.88
2018-11-25T07:14:56.750Z,88.67
2018-11-25T07:15:56.749Z,88.78
2018-11-25T07:16:56.731Z,89.09
2018-11-25T07:17:56.717Z,88.57
2018-11-25T07:18:56.727Z,88.30
2018-11-25T07:19:56.696Z,88.78
2018-11-25T07:20:56.685Z,88.57
2018-11-25T07:21:56.677Z,88.78
2018-11-25T07:22:56.662Z,88.78
2018-11-25T07:23:56.682Z,88.92
2018-11-25T07:24:56.643Z,89.03
2018-11-25T07:25:56.633Z,88.78
2018-11-25T07:26:56.622Z,88.36
2018-11-25T07:27:56.617Z,88.67
2018-11-25T07:28:56.600Z,88.36
2018-11-25T07:29:56.611Z,88.67
2018-11-25T07:30:56.597Z,88.26
2018-11-25T07:31:56.571Z,88.26
2018-11-25T07:32:56.569Z,88.36
2018-11-25T07:33:56.575Z,88.57
2018-11-25T07:34:56.536Z,88.36
2018-11-25T07:35:56.550Z,88.26
2018-11-25T07:36:56.513Z,88.46
2018-11-25T07:37:56.542Z,88.26
2018-11-25T07:38:56.497Z,88.26
2018-11-25T07:39:56.504Z,88.26
2018-11-25T07:40:56.470Z,87.74
2018-11-25T07:41:56.460Z,88.06
2018-11-25T07:42:56.448Z,87.91
2018-11-25T07:43:56.438Z,88.12
2018-11-25T07:44:56.465Z,88.16
2018-11-25T07:45:56.416Z,88.06
2018-11-25T07:46:56.404Z,87.95
2018-11-25T07:47:56.450Z,88.01
2018-11-25T07:48:56.383Z,88.01
2018-11-25T07:49:56.372Z,88.12
2018-11-25T07:50:56.375Z,87.70
2018-11-25T07:51:56.358Z,87.74
2018-11-25T07:52:56.339Z,87.70
2018-11-25T07:53:56.351Z,87.91
2018-11-25T07:54:56.318Z,88.12
2018-11-25T07:55:56.308Z,88.01
2018-11-25T07:56:56.298Z,87.81
2018-11-25T07:57:56.305Z,87.81
2018-11-25T07:58:56.316Z,88.01
2018-11-25T07:59:56.265Z,87.81
2018-11-25T08:00:56.252Z,87.91
2018-11-25T08:01:56.241Z,88.01
2018-11-25T08:02:56.243Z,87.08
2018-11-25T08:03:56.222Z,87.35
2018-11-25T08:04:56.231Z,87.39
2018-11-25T08:05:56.199Z,87.35
2018-11-25T08:06:56.189Z,87.18
2018-11-25T08:07:56.177Z,86.94
2018-11-25T08:08:56.191Z,87.18
2018-11-25T08:09:56.193Z,88.70
2018-11-25T08:10:56.148Z,89.62
2018-11-25T08:11:56.135Z,89.01
2018-11-25T08:12:56.620Z,89.11
2018-11-25T08:13:56.114Z,89.42
2018-11-25T08:14:56.142Z,89.11
2018-11-25T08:15:56.115Z,89.28
2018-11-25T08:16:56.082Z,88.07
2018-11-25T08:17:56.070Z,88.28
2018-11-25T08:18:56.062Z,87.66
2018-11-25T08:19:56.050Z,88.18
2018-11-25T08:20:56.063Z,88.07
2018-11-25T08:21:56.026Z,87.76
2018-11-25T08:22:56.016Z,89.42
2018-11-25T08:23:56.006Z,88.49
2018-11-25T08:24:56.029Z,87.76
2018-11-25T08:25:55.989Z,87.87
2018-11-25T08:26:55.971Z,87.66
2018-11-25T08:27:55.960Z,88.07
2018-11-25T08:28:55.969Z,87.15
2018-11-25T08:29:55.937Z,86.69
2018-11-25T08:30:55.975Z,86.94
2018-11-25T08:31:55.931Z,86.83
2018-11-25T08:32:55.905Z,87.04
2018-11-25T08:33:55.901Z,86.83
2018-11-25T08:34:55.883Z,87.04
2018-11-25T08:35:55.908Z,86.63
2018-11-25T08:36:55.887Z,86.83
2018-11-25T08:37:55.851Z,86.63
2018-11-25T08:38:55.839Z,86.52
2018-11-25T08:39:55.830Z,86.73
2018-11-25T08:40:55.817Z,87.25
2018-11-25T08:41:55.827Z,87.35
2018-11-25T08:42:55.812Z,86.83
2018-11-25T08:43:55.785Z,86.94
2018-11-25T08:44:55.777Z,87.35
2018-11-25T08:45:55.767Z,87.97
2018-11-25T08:46:55.751Z,87.97
2018-11-25T08:47:55.763Z,87.87
2018-11-25T08:48:55.731Z,87.97
2018-11-25T08:49:55.732Z,88.07
2018-11-25T08:50:55.710Z,87.87
2018-11-25T08:51:55.700Z,87.87
2018-11-25T08:52:55.722Z,87.66
2018-11-25T08:53:55.676Z,87.87
2018-11-25T08:54:55.678Z,87.97
2018-11-25T08:55:55.665Z,87.87
2018-11-25T08:56:55.645Z,87.87
2018-11-25T08:57:55.663Z,87.87
2018-11-25T08:58:55.641Z,87.97
2018-11-25T08:59:55.617Z,87.87
2018-11-25T09:00:55.609Z,87.87
2018-11-25T09:01:55.592Z,87.66
2018-11-25T09:02:55.580Z,87.87
2018-11-25T09:03:55.606Z,87.97
2018-11-25T09:04:55.557Z,88.07
2018-11-25T09:05:55.546Z,87.76
2018-11-25T09:06:55.544Z,88.07
2018-11-25T09:07:55.526Z,87.97
2018-11-25T09:08:55.513Z,87.97
2018-11-25T09:09:55.523Z,87.66
2018-11-25T09:10:55.491Z,87.66
2018-11-25T09:11:55.482Z,87.93
2018-11-25T09:12:56.321Z,87.83
2018-11-25T09:13:55.457Z,87.10
2018-11-25T09:14:55.465Z,87.31
2018-11-25T09:15:55.490Z,87.31
2018-11-25T09:16:55.429Z,87.10
2018-11-25T09:17:55.415Z,87.21
2018-11-25T09:18:55.407Z,86.90
2018-11-25T09:19:55.414Z,87.31
2018-11-25T09:20:55.385Z,87.21
2018-11-25T09:21:55.371Z,87.21
2018-11-25T09:22:55.396Z,88.04
2018-11-25T09:23:55.350Z,87.83
2018-11-25T09:24:55.344Z,87.93
2018-11-25T09:25:55.351Z,87.73
2018-11-25T09:26:55.317Z,87.83
2018-11-25T09:27:55.308Z,87.93
2018-11-25T09:28:55.312Z,87.93
2018-11-25T09:29:55.286Z,87.73
2018-11-25T09:30:55.281Z,88.04
2018-11-25T09:31:55.265Z,87.93
2018-11-25T09:32:55.259Z,87.31
2018-11-25T09:33:55.277Z,87.07
2018-11-25T09:36:10.266Z,87.10
2018-11-25T09:37:04.025Z,87.10
2018-11-25T09:38:04.007Z,86.79
2018-11-25T09:39:04.006Z,87.21
2018-11-25T09:40:04.046Z,87.10
2018-11-25T09:41:03.985Z,86.90
2018-11-25T09:42:03.967Z,86.76
2018-11-25T09:43:03.954Z,87.99
2018-11-25T09:44:03.941Z,87.68
2018-11-25T09:45:03.947Z,87.58
2018-11-25T09:46:03.920Z,87.68
2018-11-25T09:47:03.918Z,87.79
2018-11-25T09:48:03.904Z,87.17
2018-11-25T09:49:03.887Z,87.07
2018-11-25T09:50:03.918Z,86.86
2018-11-25T09:51:03.872Z,86.76
2018-11-25T09:52:03.852Z,86.76
2018-11-25T09:53:03.843Z,86.76
2018-11-25T09:54:03.833Z,86.71
2018-11-25T09:55:03.825Z,87.17
2018-11-25T09:56:03.828Z,87.68
2018-11-25T09:57:03.837Z,90.02
2018-11-25T09:59:07.949Z,86.51
2018-11-25T10:00:07.941Z,87.85
2018-11-25T10:01:07.949Z,86.61
2018-11-25T10:02:07.917Z,86.44
2018-11-25T10:03:07.910Z,86.44
2018-11-25T10:04:07.902Z,87.79
2018-11-25T10:05:07.887Z,87.89
2018-11-25T10:06:07.901Z,87.79
2018-11-25T10:07:07.861Z,86.96
2018-11-25T10:08:07.853Z,87.89
2018-11-25T10:09:07.876Z,87.17
2018-11-25T10:10:07.831Z,88.51
2018-11-25T10:11:07.822Z,87.85
2018-11-25T10:12:07.825Z,88.06
2018-11-25T10:13:07.798Z,86.16
2018-11-25T10:14:07.794Z,85.30
2018-11-25T10:15:07.777Z,85.39
2018-11-25T10:16:07.776Z,84.78
2018-11-25T10:17:07.757Z,83.81
2018-11-25T10:18:07.746Z,83.33
2018-11-25T10:19:07.734Z,84.16
2018-11-25T10:20:07.737Z,84.16
2018-11-25T10:21:07.711Z,83.95
2018-11-25T10:22:07.713Z,84.30
2018-11-25T10:23:07.695Z,84.51
2018-11-25T10:24:07.682Z,85.13
2018-11-25T10:25:07.670Z,85.44
2018-11-25T10:26:07.696Z,85.47
2018-11-25T10:27:07.645Z,85.68
2018-11-25T10:28:07.638Z,86.30
2018-11-25T10:29:07.626Z,86.55
2018-11-25T10:30:07.618Z,86.65
2018-11-25T10:31:07.610Z,87.17
2018-11-25T10:32:07.602Z,87.17
2018-11-25T10:33:07.583Z,87.99
2018-11-25T10:34:07.575Z,87.89
2018-11-25T10:35:07.595Z,88.45
2018-11-25T10:36:07.549Z,88.14
2018-11-25T10:37:07.547Z,88.86
2018-11-25T10:38:07.535Z,88.45
2018-11-25T10:39:07.518Z,87.83
2018-11-25T10:40:07.513Z,88.20
2018-11-25T10:41:07.505Z,88.24
2018-11-25T10:42:07.485Z,88.34
2018-11-25T10:43:07.480Z,88.41
2018-11-25T10:44:07.468Z,88.20
2018-11-25T10:45:07.457Z,87.73
2018-11-25T10:46:07.452Z,87.79
2018-11-25T10:47:07.441Z,87.68
2018-11-25T10:48:07.422Z,88.20
2018-11-25T10:49:07.409Z,87.58
2018-11-25T10:50:07.407Z,87.79
2018-11-25T10:51:07.393Z,87.79
2018-11-25T10:52:07.389Z,88.10
2018-11-25T10:53:07.366Z,88.31
2018-11-25T10:54:07.361Z,87.89
2018-11-25T10:55:07.343Z,87.79
2018-11-25T10:56:07.335Z,88.31
2018-11-25T10:57:07.358Z,88.51
2018-11-25T10:58:07.317Z,88.41
2018-11-25T10:59:07.304Z,87.68
2018-11-25T11:00:07.293Z,88.10
2018-11-25T11:01:07.280Z,88.10
2018-11-25T11:02:07.267Z,89.13
2018-11-25T11:03:07.268Z,89.13
2018-11-25T11:04:07.268Z,88.31
2018-11-25T11:05:07.249Z,88.20
2018-11-25T11:06:07.243Z,88.82
2018-11-25T11:07:07.214Z,89.03
2018-11-25T11:08:07.239Z,89.09
2018-11-25T11:09:07.198Z,88.71
2018-11-25T11:10:07.183Z,88.71
2018-11-25T11:11:07.175Z,88.41
2018-11-25T11:12:07.675Z,88.82
2018-11-25T11:13:07.153Z,88.51
2018-11-25T11:14:07.150Z,88.71
2018-11-25T11:15:07.130Z,88.20
2018-11-25T11:16:07.119Z,88.71
2018-11-25T11:17:07.144Z,89.13
2018-11-25T11:18:07.105Z,89.03
2018-11-25T11:19:07.090Z,88.82
2018-11-25T11:20:07.075Z,88.61
2018-11-25T11:21:07.066Z,89.54
2018-11-25T11:22:07.057Z,89.13
2018-11-25T11:23:07.056Z,88.41
2018-11-25T11:24:07.071Z,88.41
2018-11-25T11:25:07.027Z,89.69
2018-11-25T11:26:07.218Z,89.79
2018-11-25T11:27:07.003Z,89.79
2018-11-25T11:28:06.995Z,89.38
2018-11-25T11:29:06.977Z,90.06
2018-11-25T11:30:07.014Z,90.00
2018-11-25T11:31:13.277Z,89.59
2018-11-25T11:32:07.952Z,90.20
2018-11-25T11:33:06.941Z,90.04
2018-11-25T11:34:06.935Z,90.31
2018-11-25T11:35:06.912Z,90.10
2018-11-25T11:36:06.914Z,90.10
2018-11-25T11:37:06.895Z,90.52
2018-11-25T11:38:06.885Z,90.10
2018-11-25T11:39:06.869Z,90.52
2018-11-25T11:40:06.860Z,90.41
2018-11-25T11:41:06.857Z,90.31
2018-11-25T11:42:06.838Z,90.20
2018-11-25T11:43:06.832Z,90.93
2018-11-25T11:44:06.815Z,90.77
2018-11-25T11:45:14.697Z,90.41
2018-11-25T11:46:06.854Z,90.52
2018-11-25T11:47:06.798Z,90.62
2018-11-25T11:48:06.772Z,90.62
2018-11-25T11:49:06.761Z,90.62
2018-11-25T11:50:06.754Z,90.52
2018-11-25T11:51:06.744Z,90.77
2018-11-25T11:52:06.728Z,91.17
2018-11-25T11:53:13.757Z,91.17
2018-11-25T11:54:06.726Z,91.07
2018-11-25T11:55:06.695Z,91.28
2018-11-25T11:56:06.687Z,91.80
2018-11-25T11:57:06.710Z,91.90
2018-11-25T11:58:06.706Z,91.59
2018-11-25T11:59:06.662Z,91.38
2018-11-25T12:00:06.643Z,92.00
2018-11-25T12:01:06.633Z,91.90
2018-11-25T12:02:06.623Z,91.90
2018-11-25T12:03:06.624Z,91.59
2018-11-25T12:04:06.598Z,91.59
2018-11-25T12:05:06.646Z,90.97
2018-11-25T12:06:06.605Z,90.45
2018-11-25T12:07:06.570Z,91.03
2018-11-25T12:08:06.563Z,91.28
2018-11-25T12:09:06.552Z,91.07
2018-11-25T12:10:06.534Z,92.21
2018-11-25T12:11:06.522Z,90.93
2018-11-25T12:12:06.513Z,91.38
2018-11-25T12:13:06.519Z,90.93
2018-11-25T12:14:06.499Z,91.07
2018-11-25T12:15:06.480Z,90.77
2018-11-25T12:16:06.476Z,90.87
2018-11-25T12:17:06.457Z,90.97
2018-11-25T12:18:06.449Z,90.87
2018-11-25T12:19:06.752Z,91.28
2018-11-25T12:20:06.447Z,91.80
2018-11-25T12:21:06.424Z,91.59
2018-11-25T12:22:06.409Z,93.04
2018-11-25T12:23:06.395Z,92.00
2018-11-25T12:24:06.391Z,92.00
2018-11-25T12:25:06.374Z,92.17
2018-11-25T12:26:06.361Z,92.21
2018-11-25T12:27:06.391Z,92.58
2018-11-25T12:28:06.338Z,92.17
2018-11-25T12:29:06.327Z,91.75
2018-11-25T12:30:06.316Z,91.03
2018-11-25T12:31:07.081Z,90.93
2018-11-25T12:32:06.302Z,90.52
2018-11-25T12:33:06.344Z,90.97
2018-11-25T12:34:06.452Z,91.03
2018-11-25T12:35:06.263Z,91.03
2018-11-25T12:36:06.262Z,91.28
2018-11-25T12:37:06.246Z,91.59
2018-11-25T12:38:06.229Z,92.00
2018-11-25T12:39:06.226Z,91.59
2018-11-25T12:40:06.208Z,91.69
2018-11-25T12:41:06.197Z,91.59
2018-11-25T12:42:06.188Z,91.49
2018-11-25T12:43:06.176Z,91.80
2018-11-25T12:44:06.174Z,91.80
2018-11-25T12:45:06.178Z,91.44
2018-11-25T12:46:06.144Z,91.13
2018-11-25T12:47:06.133Z,91.75
2018-11-25T12:48:06.131Z,90.72
2018-11-25T12:49:06.114Z,91.03
2018-11-25T12:50:06.110Z,91.49
2018-11-25T12:51:06.101Z,91.69
2018-11-25T12:52:06.080Z,91.80
2018-11-25T12:53:06.071Z,91.59
2018-11-25T12:54:06.058Z,91.38